Time;durP1;ratioP1;P1;durP2;ratioP2;P2;SDS_P1;SDS_P2;PMS_P1;PMS_P2;Temp;Humidity;BMP_temperature;BMP_pressure;BME280_temperature;BME280_humidity;BME280_pressure;Samples;Min_cycle;Max_cycle;Signal;HPM_P1;HPM_P2
2023/03/19 00:01:43;;;;;;;28.08;13.57;;;;;;;9.67;44.38;100182.56;6214841;22;101292;-80
2023/03/19 00:04:08;;;;;;;23.38;14.23;;;;;;;9.75;44.16;100188.44;6214501;22;101843;-79
2023/03/19 00:06:34;;;;;;;26.33;14.07;;;;;;;9.75;44.16;100196.28;6190161;22;97192;-80
2023/03/19 00:08:59;;;;;;;28.75;13.82;;;;;;;9.37;44.65;100158.22;6241546;22;96885;-80
2023/03/19 00:11:25;;;;;;;30.48;14.77;;;;;;;9.53;45.12;100195.25;6213971;22;97732;-81
2023/03/19 00:13:50;;;;;;;30.42;14.27;;;;;;;9.30;44.72;100164.53;6214870;22;101270;-80
2023/03/19 00:16:16;;;;;;;25.45;14.15;;;;;;;9.56;44.50;100194.31;6240402;22;96810;-81
2023/03/19 00:18:41;;;;;;;28.55;16.15;;;;;;;9.52;44.86;100198.78;6242064;22;96855;-80
2023/03/19 00:21:07;;;;;;;27.63;15.35;;;;;;;9.52;45.02;100218.00;6189490;22;101962;-85
2023/03/19 00:23:34;;;;;;;27.42;14.50;;;;;;;9.45;45.51;100212.97;6189606;22;101658;-80
2023/03/19 00:26:00;;;;;;;35.10;15.30;;;;;;;9.42;45.19;100211.31;6214888;22;97206;-79
2023/03/19 00:28:26;;;;;;;29.13;14.05;;;;;;;9.41;45.20;100208.75;6240693;22;96789;-83
2023/03/19 00:30:53;;;;;;;32.75;14.75;;;;;;;9.41;45.41;100211.38;6214865;22;100998;-79
2023/03/19 00:33:37;;;;;;;32.35;14.43;;;;;;;9.31;45.36;100205.56;6241735;22;98309;-81
2023/03/19 00:36:04;;;;;;;29.85;15.45;;;;;;;9.32;45.77;100209.03;6241052;22;97099;-80
2023/03/19 00:38:31;;;;;;;28.90;15.13;;;;;;;9.33;45.44;100200.25;6215646;22;97218;-82
2023/03/19 00:40:56;;;;;;;31.08;14.82;;;;;;;9.36;45.49;100197.53;6214493;22;101613;-80
2023/03/19 00:43:22;;;;;;;26.58;13.48;;;;;;;9.30;45.06;100201.22;6213805;22;102018;-79
2023/03/19 00:45:48;;;;;;;26.23;13.30;;;;;;;9.35;45.08;100196.69;6215863;22;96679;-79
2023/03/19 00:48:13;;;;;;;22.42;14.05;;;;;;;9.27;45.67;100206.53;6191162;22;97210;-80
2023/03/19 00:50:39;;;;;;;28.67;14.50;;;;;;;9.08;45.96;100180.06;6215222;22;101284;-80
2023/03/19 00:53:04;;;;;;;24.40;13.30;;;;;;;9.22;45.98;100197.97;6190928;22;101174;-80
2023/03/19 00:55:30;;;;;;;25.35;13.82;;;;;;;9.14;46.62;100186.88;6216023;22;96688;-80
2023/03/19 00:57:56;;;;;;;26.10;12.93;;;;;;;9.23;45.40;100192.69;6217291;22;97223;-80
2023/03/19 01:00:22;;;;;;;26.70;13.00;;;;;;;9.14;46.09;100187.75;6214378;22;101419;-77
2023/03/19 01:02:48;;;;;;;26.40;12.93;;;;;;;9.09;46.26;100179.16;6187915;22;101684;-77
2023/03/19 01:05:13;;;;;;;27.90;14.07;;;;;;;9.16;45.83;100190.28;6216126;22;96724;-78
2023/03/19 01:07:39;;;;;;;27.30;14.25;;;;;;;9.02;46.05;100156.69;6217267;22;96852;-76
2023/03/19 01:10:05;;;;;;;24.48;13.82;;;;;;;9.13;46.00;100175.53;6191196;22;101678;-77
2023/03/19 01:12:30;;;;;;;24.17;13.50;;;;;;;9.16;45.80;100175.47;6189611;22;101819;-81
2023/03/19 01:14:56;;;;;;;25.02;13.18;;;;;;;9.07;45.88;100167.84;6216645;22;96734;-80
2023/03/19 01:17:22;;;;;;;25.35;14.00;;;;;;;9.02;45.90;100162.78;6216281;22;97359;-80
2023/03/19 01:19:48;;;;;;;21.42;13.10;;;;;;;8.98;45.75;100155.91;6189771;22;100990;-79
2023/03/19 01:22:15;;;;;;;26.73;13.60;;;;;;;9.06;45.74;100174.00;6214289;22;101218;-80
2023/03/19 01:24:46;;;;;;;26.40;13.98;;;;;;;8.90;46.53;100183.22;6192990;22;97005;-80
2023/03/19 01:27:12;;;;;;;29.20;13.50;;;;;;;8.95;46.15;100176.09;6191069;22;98229;-81
2023/03/19 01:29:38;;;;;;;27.55;14.73;;;;;;;8.93;46.24;100178.78;6190664;22;100929;-79
2023/03/19 01:32:24;;;;;;;28.77;15.05;;;;;;;8.82;46.50;100166.00;6218376;22;99555;-81
2023/03/19 01:35:04;;;;;;;25.73;14.27;;;;;;;8.87;46.31;100180.69;6242522;22;97065;-79
2023/03/19 01:37:29;;;;;;;24.00;12.93;;;;;;;8.72;46.50;100161.06;6214333;22;97267;-79
2023/03/19 01:39:55;;;;;;;26.60;15.25;;;;;;;8.86;46.64;100177.22;6215630;22;98309;-80
2023/03/19 01:42:21;;;;;;;27.77;14.40;;;;;;;8.80;46.17;100169.53;6214971;22;101482;-80
2023/03/19 01:45:36;;;;;;;24.73;13.95;;;;;;;8.81;46.46;100179.09;6164624;22;96822;-80
2023/03/19 01:48:30;;;;;;;26.20;14.50;;;;;;;8.84;46.00;100181.63;6242617;22;96717;-81
2023/03/19 01:51:06;;;;;;;23.40;14.07;;;;;;;8.76;46.10;100160.94;6216428;22;101005;-80
2023/03/19 01:54:04;;;;;;;23.98;14.70;;;;;;;8.67;46.30;100165.56;6221732;22;101743;-79
2023/03/19 01:56:41;;;;;;;27.05;15.95;;;;;;;8.50;46.31;100139.91;6217146;22;96763;-80
2023/03/19 01:59:28;;;;;;;27.40;15.10;;;;;;;8.71;46.11;100181.13;6219636;22;96840;-80
2023/03/19 02:02:28;;;;;;;27.98;15.95;;;;;;;8.67;45.59;100160.31;6216054;22;99185;-79
2023/03/19 02:05:03;;;;;;;30.25;15.77;;;;;;;8.76;46.40;100181.03;6241807;22;101668;-79
2023/03/19 02:07:34;;;;;;;28.92;16.88;;;;;;;8.78;46.29;100184.44;6216156;22;96792;-80
2023/03/19 02:10:01;;;;;;;34.15;16.13;;;;;;;8.67;45.76;100173.41;6242655;22;97093;-80
2023/03/19 02:12:27;;;;;;;31.85;16.25;;;;;;;8.57;46.24;100160.59;6187937;22;99366;-79
2023/03/19 02:14:53;;;;;;;29.70;17.70;;;;;;;8.66;46.08;100169.09;6215008;22;97791;-79
2023/03/19 02:17:21;;;;;;;28.95;17.00;;;;;;;8.73;45.74;100181.97;6215672;22;96680;-81
2023/03/19 02:19:57;;;;;;;27.15;15.68;;;;;;;8.66;46.70;100193.47;6190725;22;97168;-80
2023/03/19 02:22:26;;;;;;;29.63;16.13;;;;;;;8.52;46.18;100179.94;6240932;22;101104;-80
2023/03/19 02:24:55;;;;;;;28.13;16.23;;;;;;;8.58;46.35;100195.44;6216141;22;101610;-79
2023/03/19 02:27:22;;;;;;;31.58;17.30;;;;;;;8.57;46.47;100183.28;6212668;22;96609;-81
2023/03/19 02:29:49;;;;;;;30.58;16.48;;;;;;;8.57;45.69;100168.44;6213339;22;97110;-80
2023/03/19 02:32:15;;;;;;;31.70;18.15;;;;;;;8.61;46.24;100183.16;6211853;22;100964;-79
2023/03/19 02:34:42;;;;;;;31.80;16.95;;;;;;;8.63;46.39;100190.09;6186888;22;100944;-81
2023/03/19 02:37:25;;;;;;;52.85;16.42;;;;;;;8.42;46.18;100174.09;6186982;22;97736;-80
2023/03/19 02:39:58;;;;;;;30.67;17.67;;;;;;;8.60;46.51;100194.50;6213678;22;97077;-80
2023/03/19 02:42:26;;;;;;;33.50;17.58;;;;;;;8.53;46.56;100195.59;6237969;22;98075;-79
2023/03/19 02:44:52;;;;;;;29.15;17.00;;;;;;;8.38;46.89;100185.53;6187284;22;101420;-79
2023/03/19 02:47:18;;;;;;;34.70;17.52;;;;;;;8.41;46.89;100200.28;6213399;22;97025;-82
2023/03/19 02:49:43;;;;;;;29.98;17.23;;;;;;;8.28;47.25;100174.44;6237579;22;96849;-81
2023/03/19 02:52:09;;;;;;;33.90;16.80;;;;;;;8.35;46.56;100175.16;6212238;22;98296;-79
2023/03/19 02:54:35;;;;;;;38.75;17.25;;;;;;;8.24;47.03;100172.81;6187068;22;100923;-80
2023/03/19 02:57:00;;;;;;;30.52;17.73;;;;;;;8.34;46.78;100192.56;6238486;22;97262;-80
2023/03/19 02:59:26;;;;;;;31.55;17.80;;;;;;;8.30;46.74;100187.50;6187189;22;96870;-80
2023/03/19 03:01:51;;;;;;;38.40;19.08;;;;;;;8.37;46.93;100204.72;6186505;22;102335;-80
2023/03/19 03:04:17;;;;;;;35.28;17.60;;;;;;;8.23;47.56;100194.66;6187691;22;101448;-79
2023/03/19 03:06:43;;;;;;;34.67;18.52;;;;;;;8.29;47.03;100189.25;6211888;22;96952;-80
2023/03/19 03:09:10;;;;;;;34.25;18.75;;;;;;;8.26;47.64;100197.19;6239226;22;96740;-79
2023/03/19 03:11:36;;;;;;;34.75;18.50;;;;;;;8.25;46.99;100187.59;6211805;22;101568;-79
2023/03/19 03:14:02;;;;;;;34.75;17.60;;;;;;;8.27;47.39;100183.19;6212474;22;101037;-80
2023/03/19 03:16:27;;;;;;;30.23;16.92;;;;;;;8.23;46.78;100171.09;6211936;22;96723;-79
2023/03/19 03:18:53;;;;;;;32.60;17.10;;;;;;;8.25;47.25;100186.75;6187796;22;97389;-80
2023/03/19 03:21:20;;;;;;;34.80;19.00;;;;;;;8.33;46.95;100188.25;6187206;22;101665;-79
2023/03/19 03:23:47;;;;;;;34.03;17.13;;;;;;;8.37;46.85;100195.09;6187075;22;101217;-79
2023/03/19 03:26:13;;;;;;;32.28;17.92;;;;;;;8.27;46.63;100185.81;6186898;22;97312;-79
2023/03/19 03:28:40;;;;;;;34.15;17.15;;;;;;;8.28;47.31;100204.97;6212607;22;96791;-79
2023/03/19 03:31:05;;;;;;;28.88;16.30;;;;;;;8.21;47.18;100185.97;6238257;22;98488;-79
2023/03/19 03:33:31;;;;;;;31.05;17.83;;;;;;;8.27;46.90;100198.88;6212391;22;101223;-80
2023/03/19 03:35:57;;;;;;;30.60;17.67;;;;;;;8.26;46.91;100191.06;6212768;22;98080;-80
2023/03/19 03:38:23;;;;;;;29.83;17.48;;;;;;;8.07;47.34;100181.09;6213619;22;96757;-85
2023/03/19 03:40:51;;;;;;;30.85;18.52;;;;;;;8.10;47.89;100186.25;6237971;22;98348;-79
2023/03/19 03:43:19;;;;;;;29.65;16.80;;;;;;;8.17;47.90;100207.84;6187863;22;101593;-80
2023/03/19 03:45:46;;;;;;;34.83;18.42;;;;;;;8.03;47.35;100178.59;6212260;22;96754;-79
2023/03/19 03:48:13;;;;;;;28.48;16.58;;;;;;;8.20;47.11;100210.38;6187884;22;97216;-79
2023/03/19 03:50:39;;;;;;;28.52;16.58;;;;;;;8.11;47.19;100202.78;6210880;22;101562;-80
2023/03/19 03:53:08;;;;;;;30.80;16.77;;;;;;;7.90;47.82;100176.28;6188518;22;101876;-80
2023/03/19 03:55:34;;;;;;;31.85;17.83;;;;;;;8.04;47.57;100196.00;6212510;22;97418;-81
2023/03/19 03:58:00;;;;;;;29.92;15.82;;;;;;;7.91;48.03;100187.59;6186932;22;97356;-79
2023/03/19 04:00:26;;;;;;;33.28;18.42;;;;;;;8.03;47.52;100183.81;6211658;22;101686;-79
2023/03/19 04:02:52;;;;;;;36.55;18.48;;;;;;;7.91;47.71;100191.09;6238226;22;101114;-79
2023/03/19 04:05:18;;;;;;;33.63;18.98;;;;;;;7.82;48.27;100180.84;6212823;22;97080;-80
2023/03/19 04:07:44;;;;;;;32.20;18.63;;;;;;;7.87;48.40;100196.44;6213074;22;96867;-80
2023/03/19 04:10:11;;;;;;;29.98;17.65;;;;;;;7.94;47.92;100208.44;6212273;22;101348;-82
2023/03/19 04:12:38;;;;;;;32.08;17.85;;;;;;;7.81;47.61;100180.91;6211408;22;101543;-80
2023/03/19 04:15:06;;;;;;;33.08;18.20;;;;;;;7.93;48.07;100204.97;6186326;22;96985;-80
2023/03/19 04:17:32;;;;;;;33.00;18.17;;;;;;;7.71;47.87;100178.53;6186731;22;97269;-79
2023/03/19 04:19:58;;;;;;;31.42;18.38;;;;;;;7.64;48.20;100158.66;6238092;22;101337;-82
2023/03/19 04:22:24;;;;;;;32.65;18.10;;;;;;;7.84;47.76;100186.91;6212360;22;101110;-79
2023/03/19 04:24:50;;;;;;;29.35;17.38;;;;;;;7.94;47.70;100209.31;6187920;22;96786;-80
2023/03/19 04:27:16;;;;;;;31.52;18.20;;;;;;;7.82;47.87;100190.44;6212820;22;96819;-80
2023/03/19 04:29:42;;;;;;;30.48;18.25;;;;;;;7.86;48.32;100205.19;6186083;22;101545;-79
2023/03/19 04:32:08;;;;;;;33.05;17.65;;;;;;;7.94;48.27;100211.03;6186285;22;99949;-80
2023/03/19 04:34:33;;;;;;;34.33;18.35;;;;;;;7.84;48.04;100192.13;6186380;22;96844;-79
2023/03/19 04:36:59;;;;;;;37.13;18.75;;;;;;;7.78;48.13;100188.81;6212115;22;96995;-80
2023/03/19 04:39:25;;;;;;;39.72;19.40;;;;;;;7.71;47.87;100175.91;6186327;22;99173;-81
2023/03/19 04:41:51;;;;;;;32.42;18.27;;;;;;;7.69;48.26;100176.84;6237488;22;97692;-80
2023/03/19 04:44:25;;;;;;;36.80;18.80;;;;;;;7.81;48.12;100197.44;6191087;22;97273;-80
2023/03/19 04:46:51;;;;;;;34.28;19.15;;;;;;;7.76;48.25;100185.38;6237636;22;96828;-80
2023/03/19 04:49:19;;;;;;;34.40;18.90;;;;;;;7.79;47.72;100174.84;6186272;22;101141;-81
2023/03/19 04:51:46;;;;;;;31.75;18.52;;;;;;;7.77;48.19;100197.56;6185115;22;100344;-81
2023/03/19 04:54:13;;;;;;;35.05;18.58;;;;;;;7.64;48.63;100187.38;6211201;22;96724;-80
2023/03/19 04:56:39;;;;;;;31.33;18.27;;;;;;;7.56;48.85;100175.41;6186719;22;97556;-80
2023/03/19 04:59:05;;;;;;;32.90;18.75;;;;;;;7.63;48.43;100192.66;6212357;22;101717;-80
2023/03/19 05:01:31;;;;;;;32.58;18.40;;;;;;;7.49;48.94;100169.47;6237496;22;100198;-81
2023/03/19 05:04:04;;;;;;;32.65;18.83;;;;;;;7.61;48.85;100184.00;6189401;22;97396;-82
2023/03/19 05:06:32;;;;;;;40.47;19.10;;;;;;;7.56;48.82;100186.72;6210408;22;97025;-80
2023/03/19 05:08:57;;;;;;;37.63;19.40;;;;;;;7.66;48.65;100200.44;6237021;22;98312;-79
2023/03/19 05:11:23;;;;;;;37.90;19.55;;;;;;;7.63;49.24;100190.06;6212172;22;101368;-79
2023/03/19 05:14:15;;;;;;;33.20;19.63;;;;;;;7.70;48.76;100200.31;6213320;22;96776;-80
2023/03/19 05:17:04;;;;;;;33.72;18.92;;;;;;;7.80;48.49;100214.03;6201138;22;96766;-80
2023/03/19 05:19:42;;;;;;;34.15;19.50;;;;;;;7.78;48.41;100207.97;6190269;22;100890;-80
2023/03/19 05:22:08;;;;;;;36.72;19.85;;;;;;;7.65;48.58;100209.16;6186491;22;101235;-79
2023/03/19 05:24:33;;;;;;;31.88;18.13;;;;;;;7.60;48.91;100209.28;6236493;22;96702;-79
2023/03/19 05:27:00;;;;;;;33.17;18.85;;;;;;;7.48;49.09;100188.66;6211847;22;96787;-79
2023/03/19 05:29:39;;;;;;;31.45;18.20;;;;;;;7.45;48.89;100183.53;6213272;22;101554;-82
2023/03/19 05:32:20;;;;;;;36.40;18.08;;;;;;;7.64;48.74;100210.06;6193288;22;101451;-80
2023/03/19 05:34:45;;;;;;;32.67;19.38;;;;;;;7.54;48.90;100214.66;6213225;22;97353;-78
2023/03/19 05:37:30;;;;;;;33.83;18.00;;;;;;;7.69;48.94;100214.28;6214048;22;97480;-78
2023/03/19 05:39:58;;;;;;;33.70;18.85;;;;;;;7.69;48.49;100216.03;6187161;22;99993;-78
2023/03/19 05:42:24;;;;;;;35.63;18.83;;;;;;;7.57;48.81;100198.91;6212545;22;101251;-78
2023/03/19 05:44:50;;;;;;;32.85;18.63;;;;;;;7.61;48.92;100207.50;6212561;22;97136;-79
2023/03/19 05:47:25;;;;;;;33.22;17.75;;;;;;;7.45;49.50;100200.03;6216271;22;97416;-79
2023/03/19 05:49:54;;;;;;;32.03;17.77;;;;;;;7.62;49.25;100217.94;6236883;22;101367;-79
2023/03/19 05:52:20;;;;;;;30.40;17.13;;;;;;;7.62;48.95;100217.06;6212811;22;101039;-78
2023/03/19 05:54:48;;;;;;;33.88;18.40;;;;;;;7.78;49.02;100217.56;6186309;22;96696;-79
2023/03/19 05:57:37;;;;;;;38.90;18.88;;;;;;;7.76;49.21;100222.81;6175719;22;97282;-77
2023/03/19 06:00:13;;;;;;;31.20;16.63;;;;;;;7.71;49.27;100195.97;6191824;22;102022;-79
2023/03/19 06:02:42;;;;;;;29.30;17.02;;;;;;;8.09;48.78;100229.00;6238877;22;97752;-78
2023/03/19 06:05:26;;;;;;;26.05;15.80;;;;;;;8.26;48.21;100215.47;6217625;22;96739;-79
2023/03/19 06:07:55;;;;;;;27.15;16.50;;;;;;;8.42;48.24;100209.88;6238325;22;97139;-78
2023/03/19 06:10:36;;;;;;;30.48;17.05;;;;;;;8.48;47.60;100199.25;6192108;22;101347;-78
2023/03/19 06:13:06;;;;;;;28.25;16.70;;;;;;;8.61;47.87;100218.94;6214379;22;102570;-78
2023/03/19 06:15:37;;;;;;;;;;;;;;;8.60;48.15;100214.59;6214510;22;96692;-78
2023/03/19 06:18:12;;;;;;;29.63;15.05;;;;;;;8.75;48.18;100214.16;6215669;22;96778;-79
2023/03/19 06:20:38;;;;;;;27.95;16.50;;;;;;;8.98;47.99;100213.50;6212146;22;98346;-78
2023/03/19 06:23:03;;;;;;;29.67;16.63;;;;;;;9.05;47.19;100209.81;6212232;22;101279;-78
2023/03/19 06:25:29;;;;;;;27.80;16.13;;;;;;;9.24;47.30;100233.69;6211710;22;98451;-78
2023/03/19 06:27:55;;;;;;;28.83;17.13;;;;;;;9.35;46.82;100235.13;6187683;22;97186;-78
2023/03/19 06:30:27;;;;;;;31.45;15.93;;;;;;;9.20;46.96;100207.66;6190283;22;101474;-78
2023/03/19 06:32:55;;;;;;;30.52;16.38;;;;;;;9.50;47.02;100232.88;6212993;22;101036;-78
2023/03/19 06:35:22;;;;;;;24.67;15.73;;;;;;;9.53;46.34;100221.47;6187879;22;96653;-78
2023/03/19 06:37:48;;;;;;;27.20;15.48;;;;;;;9.33;47.11;100206.34;6188198;22;97753;-78
2023/03/19 06:40:14;;;;;;;23.50;14.63;;;;;;;9.63;47.15;100240.38;6238198;22;97531;-79
2023/03/19 06:42:44;;;;;;;26.88;15.70;;;;;;;9.70;46.53;100244.53;6186654;22;101243;-81
2023/03/19 06:45:10;;;;;;;28.30;16.45;;;;;;;9.64;46.59;100223.75;6212280;22;97222;-80
2023/03/19 06:47:36;;;;;;;34.10;16.45;;;;;;;9.74;46.77;100248.75;6238857;22;97610;-82
2023/03/19 06:50:03;;;;;;;25.40;14.50;;;;;;;9.79;46.63;100240.75;6237469;22;97517;-79
2023/03/19 06:52:28;;;;;;;27.20;15.57;;;;;;;9.98;46.57;100247.97;6187691;22;98910;-78
2023/03/19 06:54:54;;;;;;;24.17;15.75;;;;;;;10.02;45.86;100232.16;6186351;22;97052;-78
2023/03/19 06:57:20;;;;;;;29.83;16.27;;;;;;;10.21;45.59;100241.13;6213468;22;97063;-81
2023/03/19 06:59:45;;;;;;;27.58;15.85;;;;;;;10.17;45.51;100242.97;6211474;22;101653;-79
2023/03/19 07:02:11;;;;;;;27.10;16.38;;;;;;;10.24;45.83;100242.75;6212867;22;101691;-78
2023/03/19 07:04:37;;;;;;;24.70;15.10;;;;;;;10.16;45.64;100222.06;6212775;22;96753;-78
2023/03/19 07:07:04;;;;;;;25.27;16.08;;;;;;;10.25;46.30;100250.59;6212959;22;96880;-78
2023/03/19 07:09:30;;;;;;;27.60;15.60;;;;;;;10.42;46.31;100234.31;6211959;22;101627;-80
2023/03/19 07:11:56;;;;;;;23.55;14.65;;;;;;;10.49;45.82;100243.66;6212572;22;101689;-77
2023/03/19 07:14:23;;;;;;;23.85;14.85;;;;;;;10.64;45.87;100250.16;6212933;22;97230;-78
2023/03/19 07:16:48;;;;;;;23.83;14.45;;;;;;;10.81;45.73;100253.03;6186374;22;97142;-78
2023/03/19 07:19:14;;;;;;;25.52;15.65;;;;;;;10.78;45.32;100241.78;6212210;22;98156;-78
2023/03/19 07:21:40;;;;;;;23.15;15.15;;;;;;;10.82;45.19;100225.88;6212180;22;97142;-78
2023/03/19 07:24:06;;;;;;;21.60;13.88;;;;;;;11.15;45.01;100256.19;6212588;22;96749;-78
2023/03/19 07:26:32;;;;;;;21.95;14.45;;;;;;;11.25;44.80;100245.25;6187753;22;97216;-79
2023/03/19 07:28:57;;;;;;;25.00;15.02;;;;;;;11.35;44.63;100252.81;6186168;22;101182;-78
2023/03/19 07:31:23;;;;;;;22.63;13.65;;;;;;;11.44;44.47;100255.09;6212825;22;101310;-78
2023/03/19 07:33:48;;;;;;;23.50;14.05;;;;;;;11.76;44.71;100254.69;6210693;22;97149;-78
2023/03/19 07:36:14;;;;;;;23.08;13.07;;;;;;;12.23;44.04;100253.69;6212894;22;97830;-78
2023/03/19 07:38:40;;;;;;;21.15;14.27;;;;;;;12.15;43.59;100253.16;6211452;22;101037;-81
2023/03/19 07:41:05;;;;;;;26.55;14.77;;;;;;;12.13;43.74;100262.88;6239168;22;98578;-78
2023/03/19 07:43:31;;;;;;;21.42;13.85;;;;;;;12.36;43.62;100267.19;6187285;22;96770;-78
2023/03/19 07:45:57;;;;;;;19.67;13.80;;;;;;;12.70;43.26;100237.63;6212598;22;96931;-78
2023/03/19 07:48:22;;;;;;;25.58;13.63;;;;;;;12.96;42.77;100256.69;6211863;22;101704;-79
2023/03/19 07:50:52;;;;;;;20.02;13.90;;;;;;;13.03;42.66;100252.84;6211258;22;100841;-79
2023/03/19 07:53:18;;;;;;;22.15;14.23;;;;;;;13.09;42.64;100256.06;6237243;22;96774;-79
2023/03/19 07:55:43;;;;;;;19.70;13.18;;;;;;;13.22;42.48;100272.16;6184450;22;97069;-78
2023/03/19 07:58:09;;;;;;;21.42;14.18;;;;;;;13.45;41.71;100249.19;6210981;22;97926;-79
2023/03/19 08:00:34;;;;;;;19.77;13.60;;;;;;;13.53;42.04;100244.44;6236935;22;98459;-78
2023/03/19 08:03:00;;;;;;;20.30;12.15;;;;;;;13.54;41.93;100264.59;6186151;22;97246;-80
2023/03/19 08:05:26;;;;;;;21.40;13.77;;;;;;;13.55;41.40;100266.28;6236784;22;97169;-80
2023/03/19 08:07:51;;;;;;;19.75;12.38;;;;;;;13.39;41.98;100257.41;6209983;22;101300;-79
2023/03/19 08:10:17;;;;;;;22.83;14.10;;;;;;;13.40;41.82;100249.41;6210769;22;101141;-78
2023/03/19 08:12:43;;;;;;;18.77;12.65;;;;;;;13.49;42.27;100256.03;6211504;22;96702;-79
2023/03/19 08:15:09;;;;;;;19.90;13.27;;;;;;;13.67;42.35;100263.09;6211792;22;96806;-80
2023/03/19 08:17:39;;;;;;;20.55;12.73;;;;;;;13.99;41.74;100250.09;6211578;22;98183;-79
2023/03/19 08:20:07;;;;;;;23.92;12.35;;;;;;;14.19;41.18;100244.69;6210795;22;101176;-78
2023/03/19 08:22:34;;;;;;;19.67;12.90;;;;;;;14.25;41.55;100257.59;6210614;22;97088;-79
2023/03/19 08:24:59;;;;;;;17.67;12.80;;;;;;;14.63;41.00;100252.19;6210508;22;97338;-79
2023/03/19 08:27:26;;;;;;;18.15;12.43;;;;;;;14.60;40.30;100235.59;6185525;22;102109;-78
2023/03/19 08:29:52;;;;;;;20.80;12.90;;;;;;;14.38;40.66;100249.06;6184551;22;101665;-78
2023/03/19 08:32:17;;;;;;;20.20;13.20;;;;;;;14.69;40.80;100269.50;6211697;22;96805;-78
2023/03/19 08:34:43;;;;;;;21.60;12.68;;;;;;;14.63;41.04;100253.94;6185161;22;97276;-78
2023/03/19 08:37:08;;;;;;;17.70;11.93;;;;;;;14.84;40.35;100231.69;6237116;22;97776;-78
2023/03/19 08:39:34;;;;;;;15.95;10.98;;;;;;;15.24;39.17;100241.91;6235579;22;101115;-80
2023/03/19 08:42:00;;;;;;;17.00;11.27;;;;;;;15.57;38.52;100250.63;6236659;22;97128;-78
2023/03/19 08:44:25;;;;;;;15.43;11.13;;;;;;;15.86;37.75;100239.38;6208686;22;97166;-78
2023/03/19 08:46:51;;;;;;;14.02;10.75;;;;;;;16.23;37.71;100243.38;6209496;22;101164;-80
2023/03/19 08:49:16;;;;;;;14.60;10.30;;;;;;;16.31;36.63;100235.84;6236713;22;97384;-79
2023/03/19 08:51:42;;;;;;;13.93;9.25;;;;;;;16.34;36.80;100227.72;6236927;22;97168;-84
2023/03/19 08:54:10;;;;;;;17.70;10.95;;;;;;;16.57;36.03;100223.69;6186072;22;97060;-78
2023/03/19 08:56:35;;;;;;;12.85;9.48;;;;;;;16.74;35.24;100238.56;6185309;22;101619;-78
2023/03/19 08:59:01;;;;;;;13.77;9.30;;;;;;;16.81;34.43;100239.91;6184959;22;100937;-79
2023/03/19 09:01:27;;;;;;;12.23;9.60;;;;;;;16.66;33.96;100219.63;6212183;22;96841;-80
2023/03/19 09:03:52;;;;;;;10.82;8.10;;;;;;;16.70;33.29;100234.41;6211209;22;97141;-81
2023/03/19 09:06:18;;;;;;;10.55;7.55;;;;;;;16.53;33.48;100222.19;6211717;22;102681;-80
2023/03/19 09:08:43;;;;;;;9.75;7.45;;;;;;;16.60;34.12;100243.84;6238105;22;98393;-85
2023/03/19 09:11:09;;;;;;;14.25;8.48;;;;;;;16.51;34.35;100232.84;6212815;22;96754;-78
2023/03/19 09:13:36;;;;;;;12.75;9.30;;;;;;;16.58;34.85;100235.13;6212590;22;97287;-80
2023/03/19 09:16:02;;;;;;;11.25;8.27;;;;;;;16.18;35.91;100226.91;6186272;22;101161;-81
2023/03/19 09:18:28;;;;;;;11.40;8.32;;;;;;;16.00;36.66;100234.16;6212843;22;101506;-79
2023/03/19 09:20:54;;;;;;;11.07;8.55;;;;;;;16.06;36.76;100221.41;6212148;22;97316;-79
2023/03/19 09:23:20;;;;;;;13.73;8.63;;;;;;;16.24;36.71;100216.81;6186883;22;97341;-76
2023/03/19 09:25:46;;;;;;;10.52;7.88;;;;;;;16.34;36.94;100211.81;6211422;22;100973;-77
2023/03/19 09:28:11;;;;;;;11.02;7.28;;;;;;;16.73;35.53;100213.88;6213050;22;98323;-83
2023/03/19 09:30:38;;;;;;;11.15;7.50;;;;;;;16.82;35.17;100208.97;6186666;22;97222;-78
2023/03/19 09:33:04;;;;;;;11.13;7.53;;;;;;;17.05;35.09;100197.78;6186953;22;98144;-81
2023/03/19 09:35:31;;;;;;;11.30;7.13;;;;;;;17.00;35.96;100221.09;6208913;22;100303;-77
2023/03/19 09:38:00;;;;;;;12.10;8.07;;;;;;;16.73;36.03;100231.56;6203958;22;101384;-80
2023/03/19 09:40:29;;;;;;;11.98;7.43;;;;;;;16.38;36.26;100226.59;6209256;22;97162;-79
2023/03/19 09:43:06;;;;;;;13.13;7.50;;;;;;;16.00;36.86;100211.16;6209028;22;97500;-78
2023/03/19 09:45:31;;;;;;;9.73;7.45;;;;;;;16.02;37.09;100208.41;6234564;22;98996;-80
2023/03/19 09:48:03;;;;;;;10.35;7.43;;;;;;;16.05;37.09;100211.72;6209086;22;101711;-83
2023/03/19 09:50:31;;;;;;;9.57;6.90;;;;;;;16.29;36.98;100198.00;6235745;22;97263;-81
2023/03/19 09:53:05;;;;;;;10.05;6.93;;;;;;;16.94;34.80;100205.56;6210248;22;97219;-83
2023/03/19 09:55:45;;;;;;;9.90;6.65;;;;;;;17.25;35.17;100208.91;6210769;22;99206;-87
2023/03/19 09:58:30;;;;;;;13.88;7.47;;;;;;;17.71;34.64;100208.63;6208417;22;97430;-86
2023/03/19 10:00:55;;;;;;;10.05;7.10;;;;;;;18.18;33.45;100202.84;6209224;22;97248;-87
2023/03/19 10:03:44;;;;;;;11.23;7.45;;;;;;;18.39;33.04;100189.91;6183992;22;97305;-81
2023/03/19 10:06:22;;;;;;;9.05;6.80;;;;;;;18.75;32.74;100196.31;6206931;22;101627;-81
2023/03/19 10:09:03;;;;;;;12.95;7.35;;;;;;;19.08;31.71;100178.91;6234071;22;97819;-82
2023/03/19 10:12:06;;;;;;;10.15;6.38;;;;;;;19.00;32.11;100188.31;6235183;22;96724;-85
2023/03/19 10:14:50;;;;;;;10.73;7.55;;;;;;;19.11;31.91;100181.34;6234514;22;97360;-83
2023/03/19 10:17:23;;;;;;;9.65;6.68;;;;;;;18.92;31.35;100180.03;6208175;22;100978;-83
2023/03/19 10:19:59;;;;;;;9.10;6.78;;;;;;;18.50;32.14;100184.72;6208217;22;101580;-83
2023/03/19 10:22:33;;;;;;;9.82;7.00;;;;;;;18.18;32.05;100167.44;6208224;22;97206;-84
2023/03/19 10:25:00;;;;;;;9.43;6.88;;;;;;;17.94;32.15;100156.69;6233748;22;97118;-83
2023/03/19 10:27:28;;;;;;;8.27;6.72;;;;;;;17.77;33.28;100187.84;6232225;22;97881;-83
2023/03/19 10:29:54;;;;;;;8.25;5.93;;;;;;;17.48;33.42;100187.06;6207399;22;101521;-83
2023/03/19 10:32:28;;;;;;;9.32;6.53;;;;;;;17.42;33.45;100190.13;6208212;22;97282;-83
2023/03/19 10:34:58;;;;;;;15.68;7.45;;;;;;;17.19;34.44;100189.81;6233136;22;97163;-83
2023/03/19 10:37:27;;;;;;;10.98;7.00;;;;;;;17.08;35.09;100192.28;6181064;22;101711;-82
2023/03/19 10:39:58;;;;;;;10.48;7.03;;;;;;;17.08;34.91;100183.50;6180277;22;100812;-83
2023/03/19 10:43:03;;;;;;;12.37;7.07;;;;;;;17.11;35.06;100168.22;6234386;22;97254;-86
2023/03/19 10:45:33;;;;;;;10.02;7.15;;;;;;;17.04;34.46;100163.41;6209471;22;97440;-84
2023/03/19 10:48:01;;;;;;;8.88;6.68;;;;;;;16.92;35.05;100181.78;6207511;22;101370;-84
2023/03/19 10:50:27;;;;;;;9.02;6.43;;;;;;;16.82;34.63;100167.41;6182817;22;101349;-85
2023/03/19 10:53:03;;;;;;;9.43;6.68;;;;;;;16.94;33.93;100169.28;6208493;22;97529;-87
2023/03/19 10:55:32;;;;;;;9.27;6.75;;;;;;;16.85;33.97;100171.69;6185486;22;96760;-89
2023/03/19 10:58:19;;;;;;;13.43;7.30;;;;;;;16.55;35.13;100156.69;6183029;22;100998;-88
2023/03/19 11:00:46;;;;;;;11.98;6.85;;;;;;;16.53;34.87;100151.47;6209514;22;101086;-86
2023/03/19 11:03:39;;;;;;;12.90;7.40;;;;;;;16.48;34.43;100160.66;6181541;22;97127;-84
2023/03/19 11:06:30;;;;;;;10.98;6.78;;;;;;;16.53;34.40;100155.94;6234278;22;97376;-83
2023/03/19 11:08:57;;;;;;;9.82;6.55;;;;;;;16.62;34.39;100155.38;6206836;22;101470;-83
2023/03/19 11:11:46;;;;;;;9.68;6.45;;;;;;;16.73;34.52;100154.72;6208495;22;101015;-79
2023/03/19 11:14:17;;;;;;;11.18;6.55;;;;;;;16.66;35.17;100156.00;6235017;22;97388;-87
2023/03/19 11:16:50;;;;;;;;;;;;;;;16.64;35.03;100158.78;6184526;22;97560;-87
2023/03/19 11:19:21;;;;;;;10.30;6.30;;;;;;;16.49;34.76;100142.03;6182881;22;101777;-86
2023/03/19 11:22:08;;;;;;;11.10;5.70;;;;;;;16.42;34.52;100127.44;6183449;22;100909;-86
2023/03/19 11:24:41;;;;;;;9.38;7.00;;;;;;;16.55;34.81;100153.19;6235154;22;97200;-87